Terminal Aerodrome Forecast
Issued by NWS

Current Version | Previous Version | Text Only | Print | Product List | Glossary On
Versions: 1 2 3 4 5 6 7 8 9 10 11 12 13 14 15 16 17 18 19 20 21
000
FTUS43 KTOP 190100 AAA
TAFMHK
TAF AMD
KMHK 190135Z 1902/1924 26011KT 5SM -TSRA BKN025CB
      TEMPO 1902/1903 2SM TSRA BKN020CB
     FM190800 VRB03KT 3SM -SHRA VCTS SCT008 BKN020CB
     FM191600 35008KT P6SM VCSH OVC040
     FM191900 34013G21KT P6SM -SHRA VCTS OVC030CB=

USA.gov is the U.S. government's official web portal to all federal, state and local government web resources and services.